sensor_id;sensor_type;location;lat;lon;timestamp;P1;durP1;ratioP1;P2;durP2;ratioP2
39982;SDS011;25670;44.782;10.356;2023-07-13T00:00:35;16.48;;;2.70;;
39982;SDS011;25670;44.782;10.356;2023-07-13T00:03:02;12.23;;;2.30;;
39982;SDS011;25670;44.782;10.356;2023-07-13T00:05:30;14.57;;;2.20;;
39982;SDS011;25670;44.782;10.356;2023-07-13T00:07:57;16.85;;;2.75;;
39982;SDS011;25670;44.782;10.356;2023-07-13T00:10:23;9.85;;;2.40;;
39982;SDS011;25670;44.782;10.356;2023-07-13T00:12:50;5.32;;;1.80;;
39982;SDS011;25670;44.782;10.356;2023-07-13T00:15:21;14.20;;;1.60;;
39982;SDS011;25670;44.782;10.356;2023-07-13T00:17:51;7.72;;;1.48;;
39982;SDS011;25670;44.782;10.356;2023-07-13T00:20:18;11.80;;;1.60;;
39982;SDS011;25670;44.782;10.356;2023-07-13T00:22:48;5.18;;;1.33;;
39982;SDS011;25670;44.782;10.356;2023-07-13T00:25:15;7.55;;;1.58;;
39982;SDS011;25670;44.782;10.356;2023-07-13T00:27:42;7.82;;;1.63;;
39982;SDS011;25670;44.782;10.356;2023-07-13T00:30:09;9.25;;;1.73;;
39982;SDS011;25670;44.782;10.356;2023-07-13T00:32:37;2.22;;;1.15;;
39982;SDS011;25670;44.782;10.356;2023-07-13T00:35:03;4.70;;;1.10;;
39982;SDS011;25670;44.782;10.356;2023-07-13T00:37:30;6.25;;;1.10;;
39982;SDS011;25670;44.782;10.356;2023-07-13T00:39:57;7.07;;;1.10;;
39982;SDS011;25670;44.782;10.356;2023-07-13T00:42:23;11.43;;;1.58;;
39982;SDS011;25670;44.782;10.356;2023-07-13T00:47:39;4.75;;;1.45;;
39982;SDS011;25670;44.782;10.356;2023-07-13T00:50:08;3.72;;;1.27;;
39982;SDS011;25670;44.782;10.356;2023-07-13T00:52:38;7.43;;;1.05;;
39982;SDS011;25670;44.782;10.356;2023-07-13T00:55:07;4.32;;;0.90;;
39982;SDS011;25670;44.782;10.356;2023-07-13T00:57:35;5.40;;;0.95;;
39982;SDS011;25670;44.782;10.356;2023-07-13T01:00:02;5.35;;;1.25;;
39982;SDS011;25670;44.782;10.356;2023-07-13T01:02:32;1.45;;;1.05;;
39982;SDS011;25670;44.782;10.356;2023-07-13T01:04:59;6.05;;;1.15;;
39982;SDS011;25670;44.782;10.356;2023-07-13T01:07:27;6.68;;;1.10;;
39982;SDS011;25670;44.782;10.356;2023-07-13T01:09:56;3.38;;;1.00;;
39982;SDS011;25670;44.782;10.356;2023-07-13T01:12:23;4.50;;;1.35;;
39982;SDS011;25670;44.782;10.356;2023-07-13T01:14:56;5.65;;;1.40;;
39982;SDS011;25670;44.782;10.356;2023-07-13T01:17:26;2.63;;;1.58;;
39982;SDS011;25670;44.782;10.356;2023-07-13T01:19:54;4.07;;;1.52;;
39982;SDS011;25670;44.782;10.356;2023-07-13T01:22:22;8.38;;;1.45;;
39982;SDS011;25670;44.782;10.356;2023-07-13T01:24:53;5.60;;;1.58;;
39982;SDS011;25670;44.782;10.356;2023-07-13T01:27:21;7.03;;;1.35;;
39982;SDS011;25670;44.782;10.356;2023-07-13T01:29:50;7.30;;;1.70;;
39982;SDS011;25670;44.782;10.356;2023-07-13T01:32:20;6.57;;;1.77;;
39982;SDS011;25670;44.782;10.356;2023-07-13T01:34:53;3.65;;;1.70;;
39982;SDS011;25670;44.782;10.356;2023-07-13T01:37:20;1.95;;;1.08;;
39982;SDS011;25670;44.782;10.356;2023-07-13T01:39:47;5.10;;;1.50;;
39982;SDS011;25670;44.782;10.356;2023-07-13T01:42:13;3.60;;;1.60;;
39982;SDS011;25670;44.782;10.356;2023-07-13T01:44:40;6.50;;;2.53;;
39982;SDS011;25670;44.782;10.356;2023-07-13T01:47:07;5.13;;;1.88;;
39982;SDS011;25670;44.782;10.356;2023-07-13T01:49:33;2.17;;;1.15;;
39982;SDS011;25670;44.782;10.356;2023-07-13T01:52:00;3.80;;;1.40;;
39982;SDS011;25670;44.782;10.356;2023-07-13T01:54:26;7.25;;;1.88;;
39982;SDS011;25670;44.782;10.356;2023-07-13T01:56:52;4.72;;;1.58;;
39982;SDS011;25670;44.782;10.356;2023-07-13T01:59:19;3.10;;;1.50;;
39982;SDS011;25670;44.782;10.356;2023-07-13T02:01:45;9.05;;;1.58;;
39982;SDS011;25670;44.782;10.356;2023-07-13T02:04:12;2.75;;;1.20;;
39982;SDS011;25670;44.782;10.356;2023-07-13T02:06:38;7.25;;;1.40;;
39982;SDS011;25670;44.782;10.356;2023-07-13T02:09:04;4.38;;;1.52;;
39982;SDS011;25670;44.782;10.356;2023-07-13T02:11:32;2.20;;;1.42;;
39982;SDS011;25670;44.782;10.356;2023-07-13T02:13:59;2.88;;;1.20;;
39982;SDS011;25670;44.782;10.356;2023-07-13T02:16:27;3.67;;;1.60;;
39982;SDS011;25670;44.782;10.356;2023-07-13T02:18:54;3.50;;;1.33;;
39982;SDS011;25670;44.782;10.356;2023-07-13T02:21:21;5.72;;;1.58;;
39982;SDS011;25670;44.782;10.356;2023-07-13T02:23:51;2.45;;;1.13;;
39982;SDS011;25670;44.782;10.356;2023-07-13T02:26:18;2.65;;;2.30;;
39982;SDS011;25670;44.782;10.356;2023-07-13T02:28:45;5.55;;;2.53;;
39982;SDS011;25670;44.782;10.356;2023-07-13T02:31:13;6.60;;;1.63;;
39982;SDS011;25670;44.782;10.356;2023-07-13T02:33:41;9.63;;;2.30;;
39982;SDS011;25670;44.782;10.356;2023-07-13T02:36:08;4.97;;;2.28;;
39982;SDS011;25670;44.782;10.356;2023-07-13T02:38:35;3.63;;;1.88;;
39982;SDS011;25670;44.782;10.356;2023-07-13T02:41:05;11.88;;;1.90;;
39982;SDS011;25670;44.782;10.356;2023-07-13T02:43:32;3.58;;;2.00;;
39982;SDS011;25670;44.782;10.356;2023-07-13T02:45:59;2.22;;;1.65;;
39982;SDS011;25670;44.782;10.356;2023-07-13T02:48:38;9.48;;;1.50;;
39982;SDS011;25670;44.782;10.356;2023-07-13T02:51:05;2.50;;;1.83;;
39982;SDS011;25670;44.782;10.356;2023-07-13T02:53:32;3.70;;;1.40;;
39982;SDS011;25670;44.782;10.356;2023-07-13T02:55:59;8.43;;;1.67;;
39982;SDS011;25670;44.782;10.356;2023-07-13T02:58:25;4.80;;;1.70;;
39982;SDS011;25670;44.782;10.356;2023-07-13T03:00:52;8.25;;;1.65;;
39982;SDS011;25670;44.782;10.356;2023-07-13T03:03:18;3.85;;;1.48;;
39982;SDS011;25670;44.782;10.356;2023-07-13T03:05:45;2.85;;;1.40;;
39982;SDS011;25670;44.782;10.356;2023-07-13T03:08:18;5.00;;;1.55;;
39982;SDS011;25670;44.782;10.356;2023-07-13T03:10:46;5.75;;;1.52;;
39982;SDS011;25670;44.782;10.356;2023-07-13T03:13:13;1.92;;;1.63;;
39982;SDS011;25670;44.782;10.356;2023-07-13T03:15:42;1.80;;;1.70;;
39982;SDS011;25670;44.782;10.356;2023-07-13T03:18:08;2.70;;;1.60;;
39982;SDS011;25670;44.782;10.356;2023-07-13T03:20:34;6.50;;;1.95;;
39982;SDS011;25670;44.782;10.356;2023-07-13T03:23:01;10.02;;;2.00;;
39982;SDS011;25670;44.782;10.356;2023-07-13T03:25:29;3.70;;;1.60;;
39982;SDS011;25670;44.782;10.356;2023-07-13T03:27:55;4.38;;;1.80;;
39982;SDS011;25670;44.782;10.356;2023-07-13T03:30:22;10.90;;;2.17;;
39982;SDS011;25670;44.782;10.356;2023-07-13T03:32:49;9.25;;;1.85;;
39982;SDS011;25670;44.782;10.356;2023-07-13T03:35:17;4.47;;;1.50;;
39982;SDS011;25670;44.782;10.356;2023-07-13T03:37:44;7.07;;;1.90;;
39982;SDS011;25670;44.782;10.356;2023-07-13T03:40:15;1.98;;;1.60;;
39982;SDS011;25670;44.782;10.356;2023-07-13T03:42:43;3.67;;;1.85;;
39982;SDS011;25670;44.782;10.356;2023-07-13T03:45:10;8.98;;;2.10;;
39982;SDS011;25670;44.782;10.356;2023-07-13T03:47:36;2.45;;;2.22;;
39982;SDS011;25670;44.782;10.356;2023-07-13T03:50:04;1.90;;;1.73;;
39982;SDS011;25670;44.782;10.356;2023-07-13T03:52:30;3.88;;;1.77;;
39982;SDS011;25670;44.782;10.356;2023-07-13T03:54:57;3.30;;;2.08;;
39982;SDS011;25670;44.782;10.356;2023-07-13T03:57:24;4.40;;;1.88;;
39982;SDS011;25670;44.782;10.356;2023-07-13T03:59:50;4.07;;;1.70;;
39982;SDS011;25670;44.782;10.356;2023-07-13T04:02:17;3.67;;;2.00;;
39982;SDS011;25670;44.782;10.356;2023-07-13T04:04:43;4.60;;;1.92;;
39982;SDS011;25670;44.782;10.356;2023-07-13T04:07:10;8.60;;;2.00;;
39982;SDS011;25670;44.782;10.356;2023-07-13T04:09:39;7.25;;;2.28;;
39982;SDS011;25670;44.782;10.356;2023-07-13T04:12:05;2.83;;;1.98;;
39982;SDS011;25670;44.782;10.356;2023-07-13T04:14:32;4.00;;;2.55;;
39982;SDS011;25670;44.782;10.356;2023-07-13T04:16:58;5.60;;;2.00;;
39982;SDS011;25670;44.782;10.356;2023-07-13T04:19:24;4.25;;;1.67;;
39982;SDS011;25670;44.782;10.356;2023-07-13T04:21:51;3.95;;;1.85;;
39982;SDS011;25670;44.782;10.356;2023-07-13T04:24:17;4.78;;;1.80;;
39982;SDS011;25670;44.782;10.356;2023-07-13T04:26:44;7.65;;;1.95;;
39982;SDS011;25670;44.782;10.356;2023-07-13T04:29:10;7.55;;;1.75;;
39982;SDS011;25670;44.782;10.356;2023-07-13T04:31:37;4.10;;;2.47;;
39982;SDS011;25670;44.782;10.356;2023-07-13T04:34:03;5.68;;;1.90;;
39982;SDS011;25670;44.782;10.356;2023-07-13T04:36:30;8.27;;;2.15;;
39982;SDS011;25670;44.782;10.356;2023-07-13T04:38:56;3.30;;;1.67;;
39982;SDS011;25670;44.782;10.356;2023-07-13T04:41:23;7.63;;;1.73;;
39982;SDS011;25670;44.782;10.356;2023-07-13T04:43:49;7.47;;;1.92;;
39982;SDS011;25670;44.782;10.356;2023-07-13T04:46:16;10.13;;;2.10;;
39982;SDS011;25670;44.782;10.356;2023-07-13T04:48:44;3.75;;;2.03;;
39982;SDS011;25670;44.782;10.356;2023-07-13T04:51:11;10.52;;;1.75;;
39982;SDS011;25670;44.782;10.356;2023-07-13T04:53:37;4.65;;;2.10;;
39982;SDS011;25670;44.782;10.356;2023-07-13T04:56:03;10.77;;;3.08;;
39982;SDS011;25670;44.782;10.356;2023-07-13T04:58:30;9.80;;;2.70;;
39982;SDS011;25670;44.782;10.356;2023-07-13T05:01:03;7.40;;;2.78;;
39982;SDS011;25670;44.782;10.356;2023-07-13T05:03:31;4.85;;;2.78;;
39982;SDS011;25670;44.782;10.356;2023-07-13T05:05:59;6.57;;;2.58;;
39982;SDS011;25670;44.782;10.356;2023-07-13T05:08:27;7.75;;;3.00;;
39982;SDS011;25670;44.782;10.356;2023-07-13T05:10:53;10.07;;;2.60;;
39982;SDS011;25670;44.782;10.356;2023-07-13T05:13:19;7.13;;;3.15;;
39982;SDS011;25670;44.782;10.356;2023-07-13T05:15:56;9.85;;;3.80;;
39982;SDS011;25670;44.782;10.356;2023-07-13T05:18:28;14.85;;;3.35;;
39982;SDS011;25670;44.782;10.356;2023-07-13T05:20:58;10.10;;;4.03;;
39982;SDS011;25670;44.782;10.356;2023-07-13T05:23:28;5.45;;;3.03;;
39982;SDS011;25670;44.782;10.356;2023-07-13T05:25:55;11.30;;;2.95;;
39982;SDS011;25670;44.782;10.356;2023-07-13T05:28:22;6.82;;;3.38;;
39982;SDS011;25670;44.782;10.356;2023-07-13T05:30:48;5.40;;;3.00;;
39982;SDS011;25670;44.782;10.356;2023-07-13T05:33:15;9.50;;;3.33;;
39982;SDS011;25670;44.782;10.356;2023-07-13T05:35:41;3.42;;;2.90;;
39982;SDS011;25670;44.782;10.356;2023-07-13T05:38:08;3.95;;;2.92;;
39982;SDS011;25670;44.782;10.356;2023-07-13T05:40:35;4.30;;;2.53;;
39982;SDS011;25670;44.782;10.356;2023-07-13T05:43:02;7.97;;;2.28;;
39982;SDS011;25670;44.782;10.356;2023-07-13T05:45:28;5.13;;;2.05;;
39982;SDS011;25670;44.782;10.356;2023-07-13T05:47:54;3.60;;;2.45;;
39982;SDS011;25670;44.782;10.356;2023-07-13T05:50:20;3.10;;;2.15;;
39982;SDS011;25670;44.782;10.356;2023-07-13T05:52:47;6.57;;;2.05;;
39982;SDS011;25670;44.782;10.356;2023-07-13T05:55:14;6.63;;;2.05;;
39982;SDS011;25670;44.782;10.356;2023-07-13T05:57:40;9.23;;;2.50;;
39982;SDS011;25670;44.782;10.356;2023-07-13T06:00:07;2.50;;;1.95;;
39982;SDS011;25670;44.782;10.356;2023-07-13T06:02:37;3.72;;;2.67;;
39982;SDS011;25670;44.782;10.356;2023-07-13T06:05:04;7.40;;;2.08;;
39982;SDS011;25670;44.782;10.356;2023-07-13T06:07:30;4.85;;;2.30;;
39982;SDS011;25670;44.782;10.356;2023-07-13T06:09:57;3.95;;;2.15;;
39982;SDS011;25670;44.782;10.356;2023-07-13T06:12:25;4.50;;;1.95;;
39982;SDS011;25670;44.782;10.356;2023-07-13T06:14:52;6.88;;;2.05;;
39982;SDS011;25670;44.782;10.356;2023-07-13T06:17:18;9.45;;;2.13;;
39982;SDS011;25670;44.782;10.356;2023-07-13T06:19:44;6.47;;;2.83;;
39982;SDS011;25670;44.782;10.356;2023-07-13T06:22:10;6.75;;;1.92;;
39982;SDS011;25670;44.782;10.356;2023-07-13T06:24:37;7.53;;;2.25;;
39982;SDS011;25670;44.782;10.356;2023-07-13T06:27:03;10.43;;;2.45;;
39982;SDS011;25670;44.782;10.356;2023-07-13T06:29:29;7.97;;;2.25;;
39982;SDS011;25670;44.782;10.356;2023-07-13T06:31:57;8.25;;;2.20;;
39982;SDS011;25670;44.782;10.356;2023-07-13T06:34:23;7.10;;;2.42;;
39982;SDS011;25670;44.782;10.356;2023-07-13T06:36:49;3.83;;;3.40;;
39982;SDS011;25670;44.782;10.356;2023-07-13T06:39:15;7.72;;;2.45;;
39982;SDS011;25670;44.782;10.356;2023-07-13T06:41:42;6.10;;;2.53;;
39982;SDS011;25670;44.782;10.356;2023-07-13T06:44:12;8.75;;;2.15;;
39982;SDS011;25670;44.782;10.356;2023-07-13T06:46:39;12.98;;;2.75;;
39982;SDS011;25670;44.782;10.356;2023-07-13T06:49:05;7.38;;;3.08;;
39982;SDS011;25670;44.782;10.356;2023-07-13T06:51:31;2.97;;;2.58;;
39982;SDS011;25670;44.782;10.356;2023-07-13T06:53:58;5.07;;;2.05;;
39982;SDS011;25670;44.782;10.356;2023-07-13T06:56:24;7.88;;;2.33;;
39982;SDS011;25670;44.782;10.356;2023-07-13T06:58:51;7.40;;;3.13;;
39982;SDS011;25670;44.782;10.356;2023-07-13T07:01:17;10.85;;;2.80;;
39982;SDS011;25670;44.782;10.356;2023-07-13T07:03:43;2.17;;;1.90;;
39982;SDS011;25670;44.782;10.356;2023-07-13T07:11:08;4.82;;;2.75;;
39982;SDS011;25670;44.782;10.356;2023-07-13T07:13:36;4.97;;;2.88;;
39982;SDS011;25670;44.782;10.356;2023-07-13T07:16:03;2.72;;;2.42;;
39982;SDS011;25670;44.782;10.356;2023-07-13T07:18:29;6.18;;;2.92;;
39982;SDS011;25670;44.782;10.356;2023-07-13T07:20:55;8.77;;;3.92;;
39982;SDS011;25670;44.782;10.356;2023-07-13T07:23:22;13.00;;;3.55;;
39982;SDS011;25670;44.782;10.356;2023-07-13T07:25:48;5.85;;;2.97;;
39982;SDS011;25670;44.782;10.356;2023-07-13T07:28:15;10.05;;;3.45;;
39982;SDS011;25670;44.782;10.356;2023-07-13T07:30:44;5.15;;;2.67;;
39982;SDS011;25670;44.782;10.356;2023-07-13T07:33:11;9.15;;;3.30;;
39982;SDS011;25670;44.782;10.356;2023-07-13T07:35:38;9.05;;;3.38;;
39982;SDS011;25670;44.782;10.356;2023-07-13T07:38:04;11.63;;;3.28;;
39982;SDS011;25670;44.782;10.356;2023-07-13T07:40:31;5.97;;;3.30;;
39982;SDS011;25670;44.782;10.356;2023-07-13T07:42:57;5.25;;;2.92;;
39982;SDS011;25670;44.782;10.356;2023-07-13T07:45:26;8.50;;;2.97;;
39982;SDS011;25670;44.782;10.356;2023-07-13T07:47:52;11.65;;;2.90;;
39982;SDS011;25670;44.782;10.356;2023-07-13T07:50:20;3.92;;;2.55;;
39982;SDS011;25670;44.782;10.356;2023-07-13T07:52:46;9.48;;;3.08;;
39982;SDS011;25670;44.782;10.356;2023-07-13T07:55:13;9.27;;;3.17;;
39982;SDS011;25670;44.782;10.356;2023-07-13T07:57:39;7.30;;;3.78;;
39982;SDS011;25670;44.782;10.356;2023-07-13T08:00:05;10.55;;;2.83;;
39982;SDS011;25670;44.782;10.356;2023-07-13T08:02:40;3.55;;;2.70;;
39982;SDS011;25670;44.782;10.356;2023-07-13T08:05:07;5.63;;;2.65;;
39982;SDS011;25670;44.782;10.356;2023-07-13T08:07:35;10.45;;;2.55;;
39982;SDS011;25670;44.782;10.356;2023-07-13T08:10:03;11.55;;;4.55;;
39982;SDS011;25670;44.782;10.356;2023-07-13T08:12:30;8.93;;;4.65;;
39982;SDS011;25670;44.782;10.356;2023-07-13T08:14:59;9.75;;;4.03;;
39982;SDS011;25670;44.782;10.356;2023-07-13T08:17:26;5.30;;;3.85;;
39982;SDS011;25670;44.782;10.356;2023-07-13T08:19:52;14.85;;;4.00;;
39982;SDS011;25670;44.782;10.356;2023-07-13T08:22:19;6.05;;;3.90;;
39982;SDS011;25670;44.782;10.356;2023-07-13T08:24:45;11.60;;;3.90;;
39982;SDS011;25670;44.782;10.356;2023-07-13T08:27:12;15.40;;;4.38;;
39982;SDS011;25670;44.782;10.356;2023-07-13T08:29:39;12.27;;;4.28;;
39982;SDS011;25670;44.782;10.356;2023-07-13T08:32:06;9.25;;;4.55;;
39982;SDS011;25670;44.782;10.356;2023-07-13T08:34:35;4.68;;;3.83;;
39982;SDS011;25670;44.782;10.356;2023-07-13T08:37:01;7.57;;;3.90;;
39982;SDS011;25670;44.782;10.356;2023-07-13T08:39:29;13.90;;;4.07;;
39982;SDS011;25670;44.782;10.356;2023-07-13T08:41:58;9.20;;;4.40;;
39982;SDS011;25670;44.782;10.356;2023-07-13T08:44:34;6.30;;;3.63;;
39982;SDS011;25670;44.782;10.356;2023-07-13T08:47:07;11.88;;;3.95;;
39982;SDS011;25670;44.782;10.356;2023-07-13T08:49:37;8.02;;;3.28;;
39982;SDS011;25670;44.782;10.356;2023-07-13T08:52:05;11.80;;;2.83;;
39982;SDS011;25670;44.782;10.356;2023-07-13T08:54:41;6.68;;;3.78;;
39982;SDS011;25670;44.782;10.356;2023-07-13T08:57:15;6.25;;;3.22;;
39982;SDS011;25670;44.782;10.356;2023-07-13T08:59:44;7.88;;;3.28;;
39982;SDS011;25670;44.782;10.356;2023-07-13T09:05:10;6.15;;;3.08;;
39982;SDS011;25670;44.782;10.356;2023-07-13T09:10:46;9.75;;;3.10;;
39982;SDS011;25670;44.782;10.356;2023-07-13T09:16:17;7.00;;;4.00;;
39982;SDS011;25670;44.782;10.356;2023-07-13T09:18:45;9.07;;;3.38;;
39982;SDS011;25670;44.782;10.356;2023-07-13T09:24:00;10.65;;;3.60;;
39982;SDS011;25670;44.782;10.356;2023-07-13T09:26:30;5.40;;;3.35;;
39982;SDS011;25670;44.782;10.356;2023-07-13T09:29:11;9.18;;;3.85;;
39982;SDS011;25670;44.782;10.356;2023-07-13T09:31:46;5.70;;;3.83;;
39982;SDS011;25670;44.782;10.356;2023-07-13T09:34:18;10.13;;;4.13;;
39982;SDS011;25670;44.782;10.356;2023-07-13T09:36:45;10.52;;;4.70;;
39982;SDS011;25670;44.782;10.356;2023-07-13T09:39:14;5.85;;;4.15;;
39982;SDS011;25670;44.782;10.356;2023-07-13T09:44:38;8.50;;;4.80;;
39982;SDS011;25670;44.782;10.356;2023-07-13T09:47:18;7.88;;;5.13;;
39982;SDS011;25670;44.782;10.356;2023-07-13T09:49:59;5.25;;;3.92;;
39982;SDS011;25670;44.782;10.356;2023-07-13T09:52:38;6.85;;;5.03;;
39982;SDS011;25670;44.782;10.356;2023-07-13T09:57:54;8.30;;;4.43;;
39982;SDS011;25670;44.782;10.356;2023-07-13T10:00:21;4.60;;;4.20;;
39982;SDS011;25670;44.782;10.356;2023-07-13T10:02:58;10.63;;;5.25;;
39982;SDS011;25670;44.782;10.356;2023-07-13T10:05:27;4.93;;;4.53;;
39982;SDS011;25670;44.782;10.356;2023-07-13T10:07:53;8.60;;;4.50;;
39982;SDS011;25670;44.782;10.356;2023-07-13T10:10:22;4.63;;;4.22;;
39982;SDS011;25670;44.782;10.356;2023-07-13T10:12:49;5.80;;;4.55;;
39982;SDS011;25670;44.782;10.356;2023-07-13T10:15:19;7.15;;;4.25;;
39982;SDS011;25670;44.782;10.356;2023-07-13T10:17:51;6.28;;;5.40;;
39982;SDS011;25670;44.782;10.356;2023-07-13T10:20:20;5.50;;;4.20;;
39982;SDS011;25670;44.782;10.356;2023-07-13T10:22:53;7.22;;;4.70;;
39982;SDS011;25670;44.782;10.356;2023-07-13T10:25:31;7.50;;;4.95;;
39982;SDS011;25670;44.782;10.356;2023-07-13T10:28:21;4.75;;;3.47;;
39982;SDS011;25670;44.782;10.356;2023-07-13T10:30:55;10.50;;;3.25;;
39982;SDS011;25670;44.782;10.356;2023-07-13T10:33:24;4.22;;;3.35;;
39982;SDS011;25670;44.782;10.356;2023-07-13T10:35:56;11.45;;;4.88;;
39982;SDS011;25670;44.782;10.356;2023-07-13T10:38:44;10.63;;;4.32;;
39982;SDS011;25670;44.782;10.356;2023-07-13T10:41:22;8.23;;;3.58;;
39982;SDS011;25670;44.782;10.356;2023-07-13T10:43:51;4.90;;;3.33;;
39982;SDS011;25670;44.782;10.356;2023-07-13T10:46:20;9.30;;;4.13;;
39982;SDS011;25670;44.782;10.356;2023-07-13T10:48:54;6.70;;;4.40;;
39982;SDS011;25670;44.782;10.356;2023-07-13T10:51:24;7.85;;;4.55;;
39982;SDS011;25670;44.782;10.356;2023-07-13T10:54:11;15.10;;;4.30;;
39982;SDS011;25670;44.782;10.356;2023-07-13T10:56:42;6.28;;;3.90;;
39982;SDS011;25670;44.782;10.356;2023-07-13T11:04:17;10.48;;;4.60;;
39982;SDS011;25670;44.782;10.356;2023-07-13T11:06:47;13.23;;;4.82;;
39982;SDS011;25670;44.782;10.356;2023-07-13T11:12:00;5.35;;;3.40;;
39982;SDS011;25670;44.782;10.356;2023-07-13T11:14:34;6.70;;;3.97;;
39982;SDS011;25670;44.782;10.356;2023-07-13T11:30:41;7.18;;;5.05;;
39982;SDS011;25670;44.782;10.356;2023-07-13T11:35:40;8.82;;;4.55;;
39982;SDS011;25670;44.782;10.356;2023-07-13T11:38:18;14.90;;;5.72;;
39982;SDS011;25670;44.782;10.356;2023-07-13T11:40:48;11.13;;;5.45;;
39982;SDS011;25670;44.782;10.356;2023-07-13T11:43:17;15.43;;;6.03;;
39982;SDS011;25670;44.782;10.356;2023-07-13T11:45:43;12.30;;;4.82;;
39982;SDS011;25670;44.782;10.356;2023-07-13T11:48:20;12.23;;;3.90;;
39982;SDS011;25670;44.782;10.356;2023-07-13T11:50:50;8.85;;;4.53;;
39982;SDS011;25670;44.782;10.356;2023-07-13T11:53:20;7.55;;;3.67;;
39982;SDS011;25670;44.782;10.356;2023-07-13T11:55:47;5.07;;;4.50;;
39982;SDS011;25670;44.782;10.356;2023-07-13T11:58:16;6.10;;;4.78;;
39982;SDS011;25670;44.782;10.356;2023-07-13T12:00:46;14.20;;;4.13;;
39982;SDS011;25670;44.782;10.356;2023-07-13T12:03:13;9.07;;;4.80;;
39982;SDS011;25670;44.782;10.356;2023-07-13T12:06:46;10.38;;;4.78;;
39982;SDS011;25670;44.782;10.356;2023-07-13T12:09:01;10.98;;;5.00;;
39982;SDS011;25670;44.782;10.356;2023-07-13T12:11:30;14.48;;;4.78;;
39982;SDS011;25670;44.782;10.356;2023-07-13T12:13:56;11.27;;;4.22;;
39982;SDS011;25670;44.782;10.356;2023-07-13T12:16:28;9.20;;;3.88;;
39982;SDS011;25670;44.782;10.356;2023-07-13T12:18:56;10.45;;;3.88;;
39982;SDS011;25670;44.782;10.356;2023-07-13T12:21:29;16.92;;;4.03;;
39982;SDS011;25670;44.782;10.356;2023-07-13T12:24:03;7.00;;;3.80;;
39982;SDS011;25670;44.782;10.356;2023-07-13T12:26:31;15.80;;;4.55;;
39982;SDS011;25670;44.782;10.356;2023-07-13T12:28:59;8.00;;;4.03;;
39982;SDS011;25670;44.782;10.356;2023-07-13T12:31:32;7.60;;;3.50;;
39982;SDS011;25670;44.782;10.356;2023-07-13T12:34:00;11.85;;;4.07;;
39982;SDS011;25670;44.782;10.356;2023-07-13T12:36:29;10.73;;;3.45;;
39982;SDS011;25670;44.782;10.356;2023-07-13T12:38:58;6.28;;;2.95;;
39982;SDS011;25670;44.782;10.356;2023-07-13T12:41:30;10.40;;;4.05;;
39982;SDS011;25670;44.782;10.356;2023-07-13T12:43:58;9.05;;;3.72;;
39982;SDS011;25670;44.782;10.356;2023-07-13T12:46:25;11.07;;;3.05;;
39982;SDS011;25670;44.782;10.356;2023-07-13T12:48:54;7.85;;;3.42;;
39982;SDS011;25670;44.782;10.356;2023-07-13T12:51:24;7.60;;;4.10;;
39982;SDS011;25670;44.782;10.356;2023-07-13T12:54:13;8.50;;;3.47;;
39982;SDS011;25670;44.782;10.356;2023-07-13T12:56:40;11.18;;;4.15;;
39982;SDS011;25670;44.782;10.356;2023-07-13T12:59:08;8.90;;;3.00;;
39982;SDS011;25670;44.782;10.356;2023-07-13T13:01:45;12.35;;;4.40;;
39982;SDS011;25670;44.782;10.356;2023-07-13T13:04:15;9.38;;;3.10;;
39982;SDS011;25670;44.782;10.356;2023-07-13T13:06:41;7.68;;;3.53;;
39982;SDS011;25670;44.782;10.356;2023-07-13T13:09:13;8.43;;;3.58;;
39982;SDS011;25670;44.782;10.356;2023-07-13T13:11:41;6.55;;;3.30;;
39982;SDS011;25670;44.782;10.356;2023-07-13T13:14:07;5.00;;;3.55;;
39982;SDS011;25670;44.782;10.356;2023-07-13T13:16:35;8.30;;;3.42;;
39982;SDS011;25670;44.782;10.356;2023-07-13T13:19:27;9.32;;;3.42;;
39982;SDS011;25670;44.782;10.356;2023-07-13T13:21:55;7.75;;;3.83;;
39982;SDS011;25670;44.782;10.356;2023-07-13T13:24:23;9.75;;;3.67;;
39982;SDS011;25670;44.782;10.356;2023-07-13T13:26:53;8.70;;;3.83;;
39982;SDS011;25670;44.782;10.356;2023-07-13T13:29:22;11.40;;;3.45;;
39982;SDS011;25670;44.782;10.356;2023-07-13T13:31:50;6.07;;;3.40;;
39982;SDS011;25670;44.782;10.356;2023-07-13T13:34:18;9.75;;;3.35;;
39982;SDS011;25670;44.782;10.356;2023-07-13T13:36:45;4.15;;;3.03;;
39982;SDS011;25670;44.782;10.356;2023-07-13T13:39:28;7.00;;;3.67;;
39982;SDS011;25670;44.782;10.356;2023-07-13T13:41:58;7.45;;;4.05;;
39982;SDS011;25670;44.782;10.356;2023-07-13T13:44:24;14.82;;;3.40;;
39982;SDS011;25670;44.782;10.356;2023-07-13T13:46:51;10.13;;;3.70;;
39982;SDS011;25670;44.782;10.356;2023-07-13T13:49:21;7.78;;;3.10;;
39982;SDS011;25670;44.782;10.356;2023-07-13T13:51:49;13.95;;;4.03;;
39982;SDS011;25670;44.782;10.356;2023-07-13T13:54:17;8.75;;;3.38;;
39982;SDS011;25670;44.782;10.356;2023-07-13T13:56:48;12.00;;;4.22;;
39982;SDS011;25670;44.782;10.356;2023-07-13T13:59:16;9.38;;;3.40;;
39982;SDS011;25670;44.782;10.356;2023-07-13T14:01:43;9.05;;;3.95;;
39982;SDS011;25670;44.782;10.356;2023-07-13T14:04:20;9.10;;;3.67;;
39982;SDS011;25670;44.782;10.356;2023-07-13T14:06:48;10.07;;;3.40;;
39982;SDS011;25670;44.782;10.356;2023-07-13T14:09:15;12.05;;;4.63;;
39982;SDS011;25670;44.782;10.356;2023-07-13T14:11:43;11.95;;;3.83;;
39982;SDS011;25670;44.782;10.356;2023-07-13T14:14:17;8.32;;;3.70;;
39982;SDS011;25670;44.782;10.356;2023-07-13T14:16:47;8.30;;;3.92;;
39982;SDS011;25670;44.782;10.356;2023-07-13T14:19:19;13.90;;;3.90;;
39982;SDS011;25670;44.782;10.356;2023-07-13T14:21:45;5.80;;;3.58;;
39982;SDS011;25670;44.782;10.356;2023-07-13T14:24:13;11.40;;;4.20;;
39982;SDS011;25670;44.782;10.356;2023-07-13T14:26:40;15.15;;;3.90;;
39982;SDS011;25670;44.782;10.356;2023-07-13T14:29:14;9.73;;;4.55;;
39982;SDS011;25670;44.782;10.356;2023-07-13T14:31:43;15.30;;;4.47;;
39982;SDS011;25670;44.782;10.356;2023-07-13T14:34:10;9.38;;;3.80;;
39982;SDS011;25670;44.782;10.356;2023-07-13T14:36:41;12.20;;;4.13;;
39982;SDS011;25670;44.782;10.356;2023-07-13T14:39:22;14.63;;;4.55;;
39982;SDS011;25670;44.782;10.356;2023-07-13T14:41:50;7.57;;;4.00;;
39982;SDS011;25670;44.782;10.356;2023-07-13T14:44:24;15.85;;;4.80;;
39982;SDS011;25670;44.782;10.356;2023-07-13T14:46:54;8.85;;;4.38;;
39982;SDS011;25670;44.782;10.356;2023-07-13T14:49:28;18.95;;;4.82;;
39982;SDS011;25670;44.782;10.356;2023-07-13T14:51:56;10.50;;;3.83;;
39982;SDS011;25670;44.782;10.356;2023-07-13T14:54:24;13.38;;;5.05;;
39982;SDS011;25670;44.782;10.356;2023-07-13T14:56:50;16.77;;;4.35;;
39982;SDS011;25670;44.782;10.356;2023-07-13T14:59:17;14.05;;;5.28;;
39982;SDS011;25670;44.782;10.356;2023-07-13T15:01:47;11.85;;;5.20;;
39982;SDS011;25670;44.782;10.356;2023-07-13T15:04:15;13.18;;;4.15;;
39982;SDS011;25670;44.782;10.356;2023-07-13T15:06:52;11.20;;;4.32;;
39982;SDS011;25670;44.782;10.356;2023-07-13T15:09:20;13.45;;;4.10;;
39982;SDS011;25670;44.782;10.356;2023-07-13T15:11:46;7.57;;;4.07;;
39982;SDS011;25670;44.782;10.356;2023-07-13T15:14:13;6.85;;;4.07;;
39982;SDS011;25670;44.782;10.356;2023-07-13T15:16:39;18.45;;;4.97;;
39982;SDS011;25670;44.782;10.356;2023-07-13T15:19:05;8.10;;;3.92;;
39982;SDS011;25670;44.782;10.356;2023-07-13T15:21:34;13.70;;;4.00;;
39982;SDS011;25670;44.782;10.356;2023-07-13T15:24:02;9.63;;;4.10;;
39982;SDS011;25670;44.782;10.356;2023-07-13T15:26:29;11.00;;;4.50;;
39982;SDS011;25670;44.782;10.356;2023-07-13T15:28:55;15.52;;;4.35;;